Schaller, IA

12:54 AM CDT on August 30, 2015 (GMT -0500)
Denison Municipal | | Change Station
CLOSE
Current Station
Airport
Location: Denison,
Elevation: 1273 ft
Nearby Weather Stations

Elev 1273 ft 41.98 °N, 95.38 °W | Updated 19 minutes ago

Overcast
Overcast
64 °F
Feels Like 64 °F
N
8
Wind Variable Wind from SSE

Today
High -- | Low -- °F
--% Chance of Precip.
Yesterday
High -- | Low -- °F
Precip. -- in
6:43 AM 7:59 PM
Full, 100% visible
Pressure 30.03 in
Visibility 10.0 miles
Clouds Overcast 1000 ft
Dew Point 63 °F
Humidity 94%
Rainfall 0.00 in
Snow Depth Not available.
UV 0 out of 12
Pollen 9.40 out of 12
Air Quality Not available.
Flu Activity Not available.
METAR KDNS 300535Z AUTO 16007KT 10SM OVC010 18/17 A3003 RMK AO2
Pressure 30.03 in
Visibility 10.0 miles
Clouds Overcast 1000 ft
Dew Point 63 °F
Humidity 94%
Rainfall 0.00 in
Snow Depth Not available.
UV 0 out of 12
Pollen 9.40 out of 12
Air Quality Not available.
Flu Activity Not available.
METAR KDNS 300535Z AUTO 16007KT 10SM OVC010 18/17 A3003 RMK AO2

10-Day Weather Forecast

×

Almanac

Astronomy

Aug. 30, 2015 Rise Set
Actual Time
Civil Twilight
Nautical Twilight
Astronomical Twilight
Moon
Length of Visible Light
Length of Day
Tomorrow will be .
, % of the Moon is Illuminated

Today's Extremes

State Highs State Lows

Community

WunderPhotos

Upload Photos

1,850,896 photos uploaded!

WunderBlogs® & News

Nearby

Air Quality

  Air Quality AQ Index Pollutant
Not available.

Snow Depth

Station Depth Elevation

Earthquake Activity

City Distance Mag. Time & Date
Minimum magnitude displayed is 2.5.

Coastal Water Temperatures

Place Temperature

Stations

Nearby Weather Stations

Station Location Temp. Windchill Dew Point Humidity Wind Precip. Elev Updated Type